Etusivu
METAR-TAF:

METAR-TAF

Lentoasemat :

Røros, Norja

Leveyspiiri: 62-35N, Pituuspiiri: 011-21E, korkeus merenpinnasta: 626 m

Tämänhetkinen sää

Tämä raportti tehtiin 7 minuuttia sitten, kello 03.50 UTC
Tuuli 3 kn idästä/koillisesta, vaihdellen pohjoisen/koillisen ja idän välillä
Lämpötila -1°C
Kosteus 93%
Ilmanpaine 1021 hPa
Näkyvyys 10 km tai enemmän

METAR: ENRO 230350Z AUTO 07003KT 020V100 9999NDV NCD M01/M02 Q1021

Aika: 05:57 (03:57 UTC)

Sääennuste

Tämä raportti tehtiin 1 tunti ja 57 minuuttia sitten, kello 02.00 UTC
Ennuste voimassa 23. päivästä klo 03 UTC - 23. päivään klo 12 UTC
Tuuli 5 kn eri suunnista
Näkyvyys 10 km tai enemmän
ei pilviä alle 1500 m:ssä eikä cumulonimbus-pilviä
Tulossa
23. päivästä klo 10 UTC - 23. päivään klo 12 UTC
Tuuli 15 kn etelästä

TAF: ENRO 230200Z 2303/2312 VRB05KT CAVOK BECMG 2310/2312 18015KT

Säähavainnot ja -ennusteet yli 4000 lentoasemalta (METAR- ja TAF-raportit).

Käytössä olevat sääasemat on merkitty karttaan keltaisilla ja punaisilla pisteillä.

Aseta hiiri pisteen päälle nähdäksesi sääaseman nimen.

Klikkaa sitten nähdäksesi säähavainnot ja -ennusteet.

Kartan vaihtaminen: klikkaa mustalla rastilla varustettuja vihreitä pisteitä, niin voit zoomata sisään; viivalla varustettua vihreää pistettä, niin voit zoomata ulos tai vihreitä nuolia, niin pääset viereisille kartoille.


METAR-TAF: